sensor_id;sensor_type;location;lat;lon;timestamp;pressure;altitude;pressure_sealevel;temperature;humidity
40205;BME280;26963;42.666;23.366;2023-03-04T00:02:19;94897.94;;;8.18;64.29
40205;BME280;26963;42.666;23.366;2023-03-04T00:04:44;94892.59;;;8.18;64.39
40205;BME280;26963;42.666;23.366;2023-03-04T00:07:10;94913.63;;;8.25;64.16
40205;BME280;26963;42.666;23.366;2023-03-04T00:09:36;94970.19;;;8.61;64.10
40205;BME280;26963;42.666;23.366;2023-03-04T00:12:02;94969.34;;;8.66;64.17
40205;BME280;26963;42.666;23.366;2023-03-04T00:14:28;94964.81;;;8.67;64.39
40205;BME280;26963;42.666;23.366;2023-03-04T00:16:53;94947.00;;;8.57;63.92
40205;BME280;26963;42.666;23.366;2023-03-04T00:19:19;94962.16;;;8.67;64.29
40205;BME280;26963;42.666;23.366;2023-03-04T00:21:44;94951.00;;;8.59;64.39
40205;BME280;26963;42.666;23.366;2023-03-04T00:24:10;94812.78;;;7.63;64.33
40205;BME280;26963;42.666;23.366;2023-03-04T00:26:35;94952.03;;;8.63;64.42
40205;BME280;26963;42.666;23.366;2023-03-04T00:29:01;94935.56;;;8.51;64.63
40205;BME280;26963;42.666;23.366;2023-03-04T00:31:28;94949.41;;;8.58;64.56
40205;BME280;26963;42.666;23.366;2023-03-04T00:33:54;94929.19;;;8.52;64.29
40205;BME280;26963;42.666;23.366;2023-03-04T00:36:19;94926.56;;;8.47;64.51
40205;BME280;26963;42.666;23.366;2023-03-04T00:38:45;94933.97;;;8.55;64.71
40205;BME280;26963;42.666;23.366;2023-03-04T00:41:10;94889.84;;;8.33;64.97
40205;BME280;26963;42.666;23.366;2023-03-04T00:43:36;94938.97;;;8.62;64.71
40205;BME280;26963;42.666;23.366;2023-03-04T00:46:01;94933.16;;;8.55;64.81
40205;BME280;26963;42.666;23.366;2023-03-04T00:48:27;94927.81;;;8.55;64.73
40205;BME280;26963;42.666;23.366;2023-03-04T00:50:52;94951.47;;;8.67;64.38
40205;BME280;26963;42.666;23.366;2023-03-04T00:53:19;94939.25;;;8.60;64.44
40205;BME280;26963;42.666;23.366;2023-03-04T00:55:44;94860.63;;;8.18;64.47
40205;BME280;26963;42.666;23.366;2023-03-04T00:58:10;94933.88;;;8.65;64.22
40205;BME280;26963;42.666;23.366;2023-03-04T01:00:35;94877.88;;;8.26;63.84
40205;BME280;26963;42.666;23.366;2023-03-04T01:03:04;94891.16;;;8.36;63.47
40205;BME280;26963;42.666;23.366;2023-03-04T01:05:29;94939.22;;;8.65;63.73
40205;BME280;26963;42.666;23.366;2023-03-04T01:07:56;94943.75;;;8.65;63.76
40205;BME280;26963;42.666;23.366;2023-03-04T01:10:21;94811.06;;;7.82;64.32
40205;BME280;26963;42.666;23.366;2023-03-04T01:12:47;94935.00;;;8.59;64.42
40205;BME280;26963;42.666;23.366;2023-03-04T01:15:13;94940.81;;;8.67;64.54
40205;BME280;26963;42.666;23.366;2023-03-04T01:17:39;94896.69;;;8.40;64.13
40205;BME280;26963;42.666;23.366;2023-03-04T01:20:06;94910.50;;;8.52;64.15
40205;BME280;26963;42.666;23.366;2023-03-04T01:22:32;94916.31;;;8.59;64.32
40205;BME280;26963;42.666;23.366;2023-03-04T01:24:57;94844.16;;;8.11;64.17
40205;BME280;26963;42.666;23.366;2023-03-04T01:27:23;94915.25;;;8.60;64.19
40205;BME280;26963;42.666;23.366;2023-03-04T01:29:48;94891.91;;;8.42;64.46
40205;BME280;26963;42.666;23.366;2023-03-04T01:32:14;94860.56;;;8.28;64.50
40205;BME280;26963;42.666;23.366;2023-03-04T01:34:40;94869.06;;;8.30;64.25
40205;BME280;26963;42.666;23.366;2023-03-04T01:37:06;94869.06;;;8.30;64.31
40205;BME280;26963;42.666;23.366;2023-03-04T01:39:31;94832.69;;;8.10;64.66
40205;BME280;26963;42.666;23.366;2023-03-04T01:41:57;94800.88;;;7.90;64.26
40205;BME280;26963;42.666;23.366;2023-03-04T01:44:23;94898.78;;;8.53;64.14
40205;BME280;26963;42.666;23.366;2023-03-04T01:46:51;94872.22;;;8.38;64.01
40205;BME280;26963;42.666;23.366;2023-03-04T01:49:18;94899.78;;;8.57;64.18
40205;BME280;26963;42.666;23.366;2023-03-04T01:51:47;94900.88;;;8.56;64.07
40205;BME280;26963;42.666;23.366;2023-03-04T01:54:14;94796.38;;;7.85;63.98
40205;BME280;26963;42.666;23.366;2023-03-04T01:56:40;94887.38;;;8.47;64.09
40205;BME280;26963;42.666;23.366;2023-03-04T01:59:19;94899.31;;;8.55;64.24
40205;BME280;26963;42.666;23.366;2023-03-04T02:01:53;94892.41;;;8.49;63.93
40205;BME280;26963;42.666;23.366;2023-03-04T02:04:24;94831.91;;;8.10;63.65
40205;BME280;26963;42.666;23.366;2023-03-04T02:06:50;94868.00;;;8.31;63.88
40205;BME280;26963;42.666;23.366;2023-03-04T02:09:17;94891.13;;;8.41;64.07
40205;BME280;26963;42.666;23.366;2023-03-04T02:11:44;94908.13;;;8.45;63.98
40205;BME280;26963;42.666;23.366;2023-03-04T02:14:11;94886.59;;;8.37;63.77
40205;BME280;26963;42.666;23.366;2023-03-04T02:16:37;94848.41;;;8.12;64.05
40205;BME280;26963;42.666;23.366;2023-03-04T02:19:12;94872.00;;;8.29;63.85
40205;BME280;26963;42.666;23.366;2023-03-04T02:21:40;94858.25;;;8.16;63.78
40205;BME280;26963;42.666;23.366;2023-03-04T02:26:34;94904.16;;;8.43;63.64
40205;BME280;26963;42.666;23.366;2023-03-04T02:29:01;94889.81;;;8.39;63.70
40205;BME280;26963;42.666;23.366;2023-03-04T02:31:32;94897.22;;;8.47;63.64
40205;BME280;26963;42.666;23.366;2023-03-04T02:34:01;94856.84;;;8.24;63.43
40205;BME280;26963;42.666;23.366;2023-03-04T02:36:28;94880.22;;;8.38;63.68
40205;BME280;26963;42.666;23.366;2023-03-04T02:38:55;94859.78;;;8.23;63.63
40205;BME280;26963;42.666;23.366;2023-03-04T02:41:24;94870.38;;;8.33;63.57
40205;BME280;26963;42.666;23.366;2023-03-04T02:43:53;94887.63;;;8.41;63.46
40205;BME280;26963;42.666;23.366;2023-03-04T02:46:19;94813.44;;;7.89;63.60
40205;BME280;26963;42.666;23.366;2023-03-04T02:48:44;94736.53;;;7.38;63.50
40205;BME280;26963;42.666;23.366;2023-03-04T02:51:10;94872.34;;;8.22;63.95
40205;BME280;26963;42.666;23.366;2023-03-04T02:53:36;94882.44;;;8.25;63.97
40205;BME280;26963;42.666;23.366;2023-03-04T02:56:04;94865.22;;;8.12;63.87
40205;BME280;26963;42.666;23.366;2023-03-04T02:58:30;94880.38;;;8.17;64.13
40205;BME280;26963;42.666;23.366;2023-03-04T03:00:56;94843.28;;;7.86;63.87
40205;BME280;26963;42.666;23.366;2023-03-04T03:03:22;94869.06;;;7.96;64.28
40205;BME280;26963;42.666;23.366;2023-03-04T03:05:47;94812.53;;;7.59;64.40
40205;BME280;26963;42.666;23.366;2023-03-04T03:08:13;94882.13;;;7.92;64.72
40205;BME280;26963;42.666;23.366;2023-03-04T03:10:38;94872.59;;;7.81;64.23
40205;BME280;26963;42.666;23.366;2023-03-04T03:13:04;94871.53;;;7.82;64.63
40205;BME280;26963;42.666;23.366;2023-03-04T03:15:29;94882.16;;;7.87;64.30
40205;BME280;26963;42.666;23.366;2023-03-04T03:17:56;94875.78;;;7.83;64.92
40205;BME280;26963;42.666;23.366;2023-03-04T03:20:24;94843.97;;;7.57;65.09
40205;BME280;26963;42.666;23.366;2023-03-04T03:22:49;94814.00;;;7.36;64.90
40205;BME280;26963;42.666;23.366;2023-03-04T03:25:16;94883.28;;;7.76;64.79
40205;BME280;26963;42.666;23.366;2023-03-04T03:27:42;94874.78;;;7.68;64.87
40205;BME280;26963;42.666;23.366;2023-03-04T03:30:14;94878.25;;;7.74;64.78
40205;BME280;26963;42.666;23.366;2023-03-04T03:32:40;94794.41;;;7.16;65.08
40205;BME280;26963;42.666;23.366;2023-03-04T03:35:06;94887.56;;;7.72;65.02
40205;BME280;26963;42.666;23.366;2023-03-04T03:37:31;94882.28;;;7.66;64.60
40205;BME280;26963;42.666;23.366;2023-03-04T03:39:57;94777.72;;;6.95;65.03
40205;BME280;26963;42.666;23.366;2023-03-04T03:42:22;94877.50;;;7.58;65.26
40205;BME280;26963;42.666;23.366;2023-03-04T03:44:48;94866.34;;;7.51;65.43
40205;BME280;26963;42.666;23.366;2023-03-04T03:47:15;94850.16;;;7.42;65.22
40205;BME280;26963;42.666;23.366;2023-03-04T03:49:40;94887.94;;;7.49;65.43
40205;BME280;26963;42.666;23.366;2023-03-04T03:52:06;94858.72;;;7.34;65.18
40205;BME280;26963;42.666;23.366;2023-03-04T03:54:32;94868.03;;;7.37;65.50
40205;BME280;26963;42.666;23.366;2023-03-04T03:56:58;94794.25;;;6.92;65.75
40205;BME280;26963;42.666;23.366;2023-03-04T03:59:23;94861.09;;;7.41;65.73
40205;BME280;26963;42.666;23.366;2023-03-04T04:01:49;94807.22;;;7.04;65.53
40205;BME280;26963;42.666;23.366;2023-03-04T04:04:14;94861.13;;;7.35;65.42
40205;BME280;26963;42.666;23.366;2023-03-04T04:06:40;94860.06;;;7.31;65.34
40205;BME280;26963;42.666;23.366;2023-03-04T04:09:06;94812.31;;;7.00;65.80
40205;BME280;26963;42.666;23.366;2023-03-04T04:11:33;94847.38;;;7.13;65.82
40205;BME280;26963;42.666;23.366;2023-03-04T04:13:59;94689.25;;;6.09;65.78
40205;BME280;26963;42.666;23.366;2023-03-04T04:16:24;94847.09;;;7.09;65.77
40205;BME280;26963;42.666;23.366;2023-03-04T04:18:50;94821.88;;;6.96;66.16
40205;BME280;26963;42.666;23.366;2023-03-04T04:21:16;94784.75;;;6.71;65.72
40205;BME280;26963;42.666;23.366;2023-03-04T04:23:41;94845.28;;;6.99;65.99
40205;BME280;26963;42.666;23.366;2023-03-04T04:26:07;94783.72;;;6.51;66.35
40205;BME280;26963;42.666;23.366;2023-03-04T04:28:32;94852.19;;;6.95;65.98
40205;BME280;26963;42.666;23.366;2023-03-04T04:30:58;94858.59;;;7.05;66.26
40205;BME280;26963;42.666;23.366;2023-03-04T04:33:23;94845.03;;;7.01;65.92
40205;BME280;26963;42.666;23.366;2023-03-04T04:35:49;94801.78;;;6.64;66.04
40205;BME280;26963;42.666;23.366;2023-03-04T04:38:14;94845.84;;;6.91;65.91
40205;BME280;26963;42.666;23.366;2023-03-04T04:40:40;94859.38;;;7.00;65.90
40205;BME280;26963;42.666;23.366;2023-03-04T04:43:07;94765.69;;;6.43;66.28
40205;BME280;26963;42.666;23.366;2023-03-04T04:45:33;94834.69;;;6.84;66.30
40205;BME280;26963;42.666;23.366;2023-03-04T04:47:59;94851.69;;;6.98;66.17
40205;BME280;26963;42.666;23.366;2023-03-04T04:50:25;94833.63;;;6.80;66.10
40205;BME280;26963;42.666;23.366;2023-03-04T04:52:54;94847.97;;;6.94;66.28
40205;BME280;26963;42.666;23.366;2023-03-04T04:55:19;94839.47;;;6.87;66.39
40205;BME280;26963;42.666;23.366;2023-03-04T04:57:45;94877.97;;;7.05;65.99
40205;BME280;26963;42.666;23.366;2023-03-04T05:00:11;94860.44;;;7.04;66.47
40205;BME280;26963;42.666;23.366;2023-03-04T05:02:36;94842.13;;;6.92;65.78
40205;BME280;26963;42.666;23.366;2023-03-04T05:05:05;94868.16;;;7.06;65.72
40205;BME280;26963;42.666;23.366;2023-03-04T05:07:32;94869.19;;;7.10;65.98
40205;BME280;26963;42.666;23.366;2023-03-04T05:09:58;94887.00;;;7.20;65.42
40205;BME280;26963;42.666;23.366;2023-03-04T05:12:23;94856.97;;;7.04;65.00
40205;BME280;26963;42.666;23.366;2023-03-04T05:14:49;94811.31;;;6.81;65.31
40205;BME280;26963;42.666;23.366;2023-03-04T05:17:14;94884.03;;;7.31;65.36
40205;BME280;26963;42.666;23.366;2023-03-04T05:19:40;94858.53;;;7.20;64.71
40205;BME280;26963;42.666;23.366;2023-03-04T05:22:05;94876.59;;;7.28;65.28
40205;BME280;26963;42.666;23.366;2023-03-04T05:24:31;94882.41;;;7.35;65.37
40205;BME280;26963;42.666;23.366;2023-03-04T05:26:59;94880.53;;;7.41;65.08
40205;BME280;26963;42.666;23.366;2023-03-04T05:29:25;94875.75;;;7.38;65.15
40205;BME280;26963;42.666;23.366;2023-03-04T05:31:50;94879.25;;;7.33;64.62
40205;BME280;26963;42.666;23.366;2023-03-04T05:34:16;94837.28;;;7.10;65.15
40205;BME280;26963;42.666;23.366;2023-03-04T05:36:41;94884.25;;;7.40;64.54
40205;BME280;26963;42.666;23.366;2023-03-04T05:39:07;94896.72;;;7.55;65.20
40205;BME280;26963;42.666;23.366;2023-03-04T05:41:32;94857.94;;;7.33;64.81
40205;BME280;26963;42.666;23.366;2023-03-04T05:43:57;94810.72;;;6.99;64.68
40205;BME280;26963;42.666;23.366;2023-03-04T05:46:23;94693.44;;;6.30;64.97
40205;BME280;26963;42.666;23.366;2023-03-04T05:48:50;94886.06;;;7.55;64.69
40205;BME280;26963;42.666;23.366;2023-03-04T05:51:20;94859.50;;;7.34;64.60
40205;BME280;26963;42.666;23.366;2023-03-04T05:53:46;94882.31;;;7.56;63.99
40205;BME280;26963;42.666;23.366;2023-03-04T05:56:17;94900.91;;;7.72;64.45
40205;BME280;26963;42.666;23.366;2023-03-04T05:58:44;94844.06;;;7.42;64.23
40205;BME280;26963;42.666;23.366;2023-03-04T06:01:12;94834.50;;;7.35;64.75
40205;BME280;26963;42.666;23.366;2023-03-04T06:03:37;94918.34;;;7.93;64.46
40205;BME280;26963;42.666;23.366;2023-03-04T06:06:04;94746.16;;;6.78;64.38
40205;BME280;26963;42.666;23.366;2023-03-04T06:08:30;94910.88;;;7.95;63.96
40205;BME280;26963;42.666;23.366;2023-03-04T06:10:56;94911.41;;;7.97;63.87
40205;BME280;26963;42.666;23.366;2023-03-04T06:13:25;94842.16;;;7.53;63.67
40205;BME280;26963;42.666;23.366;2023-03-04T06:15:55;94852.47;;;7.64;63.11
40205;BME280;26963;42.666;23.366;2023-03-04T06:18:25;94923.06;;;8.07;63.22
40205;BME280;26963;42.666;23.366;2023-03-04T06:20:55;94904.50;;;7.91;63.14
40205;BME280;26963;42.666;23.366;2023-03-04T06:23:21;94907.75;;;7.83;64.02
40205;BME280;26963;42.666;23.366;2023-03-04T06:25:53;94864.75;;;7.55;64.15
40205;BME280;26963;42.666;23.366;2023-03-04T06:28:20;94935.94;;;7.94;64.08
40205;BME280;26963;42.666;23.366;2023-03-04T06:30:45;94913.59;;;7.85;63.33
40205;BME280;26963;42.666;23.366;2023-03-04T06:33:11;94863.53;;;7.32;63.60
40205;BME280;26963;42.666;23.366;2023-03-04T06:35:36;94906.31;;;7.46;64.72
40205;BME280;26963;42.666;23.366;2023-03-04T06:38:02;94859.88;;;7.17;64.70
40205;BME280;26963;42.666;23.366;2023-03-04T06:40:27;94922.25;;;7.51;64.31
40205;BME280;26963;42.666;23.366;2023-03-04T06:42:53;94850.56;;;7.10;64.02
40205;BME280;26963;42.666;23.366;2023-03-04T06:45:18;94933.44;;;7.53;64.14
40205;BME280;26963;42.666;23.366;2023-03-04T06:47:44;94860.19;;;6.95;64.31
40205;BME280;26963;42.666;23.366;2023-03-04T06:50:11;94942.53;;;7.47;64.14
40205;BME280;26963;42.666;23.366;2023-03-04T06:52:37;94943.03;;;7.54;65.06
40205;BME280;26963;42.666;23.366;2023-03-04T06:55:04;94936.13;;;7.53;64.35
40205;BME280;26963;42.666;23.366;2023-03-04T06:57:30;94786.91;;;6.53;64.20
40205;BME280;26963;42.666;23.366;2023-03-04T06:59:55;94938.66;;;7.79;64.07
40205;BME280;26963;42.666;23.366;2023-03-04T07:02:24;94899.41;;;7.45;63.46
40205;BME280;26963;42.666;23.366;2023-03-04T07:04:49;94936.47;;;7.91;62.65
40205;BME280;26963;42.666;23.366;2023-03-04T07:07:15;94954.56;;;7.99;62.65
40205;BME280;26963;42.666;23.366;2023-03-04T07:09:41;94935.69;;;7.91;62.73
40205;BME280;26963;42.666;23.366;2023-03-04T07:12:06;94936.41;;;8.02;62.97
40205;BME280;26963;42.666;23.366;2023-03-04T07:14:32;94947.56;;;8.09;62.51
40205;BME280;26963;42.666;23.366;2023-03-04T07:16:57;94893.16;;;7.70;62.38
40205;BME280;26963;42.666;23.366;2023-03-04T07:19:23;94949.94;;;8.10;62.42
40205;BME280;26963;42.666;23.366;2023-03-04T07:21:48;94930.78;;;8.08;62.04
40205;BME280;26963;42.666;23.366;2023-03-04T07:24:14;94943.78;;;8.20;61.54
40205;BME280;26963;42.666;23.366;2023-03-04T07:26:40;94865.75;;;7.70;61.92
40205;BME280;26963;42.666;23.366;2023-03-04T07:29:05;94903.47;;;7.87;61.85
40205;BME280;26963;42.666;23.366;2023-03-04T07:31:34;94943.78;;;8.20;61.70
40205;BME280;26963;42.666;23.366;2023-03-04T07:34:01;94885.34;;;7.89;61.80
40205;BME280;26963;42.666;23.366;2023-03-04T07:36:28;94915.56;;;8.14;61.56
40205;BME280;26963;42.666;23.366;2023-03-04T07:38:54;94895.41;;;7.97;61.05
40205;BME280;26963;42.666;23.366;2023-03-04T07:41:20;94928.28;;;8.27;60.47
40205;BME280;26963;42.666;23.366;2023-03-04T07:43:47;94944.72;;;8.35;60.46
40205;BME280;26963;42.666;23.366;2023-03-04T07:46:13;94960.16;;;8.48;59.97
40205;BME280;26963;42.666;23.366;2023-03-04T07:48:38;94947.34;;;8.50;59.95
40205;BME280;26963;42.666;23.366;2023-03-04T07:53:39;94931.81;;;8.57;59.41
40205;BME280;26963;42.666;23.366;2023-03-04T07:56:06;94943.47;;;8.67;59.76
40205;BME280;26963;42.666;23.366;2023-03-04T07:58:32;94885.06;;;8.30;59.68
40205;BME280;26963;42.666;23.366;2023-03-04T08:00:58;94942.31;;;8.78;59.60
40205;BME280;26963;42.666;23.366;2023-03-04T08:03:24;94914.97;;;8.62;59.68
40205;BME280;26963;42.666;23.366;2023-03-04T08:05:50;94935.28;;;8.87;59.50
40205;BME280;26963;42.666;23.366;2023-03-04T08:08:16;94949.59;;;8.96;58.78
40205;BME280;26963;42.666;23.366;2023-03-04T08:10:42;94943.44;;;9.01;59.25
40205;BME280;26963;42.666;23.366;2023-03-04T08:13:07;94944.69;;;9.09;58.85
40205;BME280;26963;42.666;23.366;2023-03-04T08:15:33;94938.19;;;9.20;58.14
40205;BME280;26963;42.666;23.366;2023-03-04T08:18:00;94948.19;;;9.34;58.12
40205;BME280;26963;42.666;23.366;2023-03-04T08:20:26;94906.72;;;9.17;58.09
40205;BME280;26963;42.666;23.366;2023-03-04T08:22:52;94932.84;;;9.44;58.01
40205;BME280;26963;42.666;23.366;2023-03-04T08:25:17;94934.91;;;9.53;58.02
40205;BME280;26963;42.666;23.366;2023-03-04T08:27:43;94919.78;;;9.43;58.22
40205;BME280;26963;42.666;23.366;2023-03-04T08:30:09;94932.06;;;9.44;58.02
40205;BME280;26963;42.666;23.366;2023-03-04T08:32:35;94940.38;;;9.42;58.60
40205;BME280;26963;42.666;23.366;2023-03-04T08:35:00;94938.47;;;9.43;58.38
40205;BME280;26963;42.666;23.366;2023-03-04T08:37:28;94935.22;;;9.46;58.02
40205;BME280;26963;42.666;23.366;2023-03-04T08:39:54;94823.91;;;8.74;58.59
40205;BME280;26963;42.666;23.366;2023-03-04T08:42:19;94940.69;;;9.36;58.84
40205;BME280;26963;42.666;23.366;2023-03-04T08:44:45;94939.19;;;9.24;59.30
40205;BME280;26963;42.666;23.366;2023-03-04T08:47:11;94928.28;;;9.21;59.84
40205;BME280;26963;42.666;23.366;2023-03-04T08:49:37;94930.47;;;9.19;59.84
40205;BME280;26963;42.666;23.366;2023-03-04T08:52:02;94909.41;;;9.12;59.04
40205;BME280;26963;42.666;23.366;2023-03-04T08:54:28;94906.38;;;9.24;58.94
40205;BME280;26963;42.666;23.366;2023-03-04T08:56:54;94911.13;;;9.27;58.94
40205;BME280;26963;42.666;23.366;2023-03-04T08:59:19;94920.78;;;9.47;58.50
40205;BME280;26963;42.666;23.366;2023-03-04T09:01:45;94918.53;;;9.59;58.29
40205;BME280;26963;42.666;23.366;2023-03-04T09:04:11;94903.28;;;9.60;57.31
40205;BME280;26963;42.666;23.366;2023-03-04T09:06:36;94900.34;;;9.61;57.05
40205;BME280;26963;42.666;23.366;2023-03-04T09:09:03;94903.59;;;9.77;56.87
40205;BME280;26963;42.666;23.366;2023-03-04T09:11:28;94913.00;;;9.94;56.16
40205;BME280;26963;42.666;23.366;2023-03-04T09:13:54;94897.31;;;9.87;55.59
40205;BME280;26963;42.666;23.366;2023-03-04T09:16:20;94888.94;;;9.75;55.89
40205;BME280;26963;42.666;23.366;2023-03-04T09:18:46;94908.97;;;9.96;55.39
40205;BME280;26963;42.666;23.366;2023-03-04T09:21:11;94895.88;;;9.95;55.74
40205;BME280;26963;42.666;23.366;2023-03-04T09:23:37;94881.59;;;10.05;55.13
40205;BME280;26963;42.666;23.366;2023-03-04T09:26:13;94897.31;;;10.25;55.11
40205;BME280;26963;42.666;23.366;2023-03-04T09:28:39;94901.38;;;10.42;54.45
40205;BME280;26963;42.666;23.366;2023-03-04T09:31:12;94897.69;;;10.57;54.07
40205;BME280;26963;42.666;23.366;2023-03-04T09:33:38;94883.44;;;10.62;53.82
40205;BME280;26963;42.666;23.366;2023-03-04T09:36:07;94890.81;;;10.84;53.50
40205;BME280;26963;42.666;23.366;2023-03-04T09:38:32;94822.38;;;10.64;52.67
40205;BME280;26963;42.666;23.366;2023-03-04T09:41:02;94831.22;;;10.78;52.21
40205;BME280;26963;42.666;23.366;2023-03-04T09:43:29;94865.88;;;11.16;51.30
40205;BME280;26963;42.666;23.366;2023-03-04T09:45:59;94887.59;;;11.42;51.46
40205;BME280;26963;42.666;23.366;2023-03-04T09:48:37;94869.13;;;11.41;51.42
40205;BME280;26963;42.666;23.366;2023-03-04T09:51:15;94826.56;;;11.25;50.57
40205;BME280;26963;42.666;23.366;2023-03-04T09:54:08;94876.75;;;11.75;49.97
40205;BME280;26963;42.666;23.366;2023-03-04T09:56:37;94870.97;;;11.82;50.03
40205;BME280;26963;42.666;23.366;2023-03-04T10:01:57;94829.94;;;11.96;48.97
40205;BME280;26963;42.666;23.366;2023-03-04T10:07:00;94867.28;;;12.29;47.40
40205;BME280;26963;42.666;23.366;2023-03-04T10:09:31;94851.91;;;12.20;48.19
40205;BME280;26963;42.666;23.366;2023-03-04T10:12:10;94866.38;;;12.33;47.81
40205;BME280;26963;42.666;23.366;2023-03-04T10:14:39;94843.25;;;12.23;47.76
40205;BME280;26963;42.666;23.366;2023-03-04T10:17:28;94850.19;;;12.02;48.71
40205;BME280;26963;42.666;23.366;2023-03-04T10:20:08;94856.09;;;11.76;49.37
40205;BME280;26963;42.666;23.366;2023-03-04T10:22:41;94862.09;;;11.45;50.32
40205;BME280;26963;42.666;23.366;2023-03-04T10:25:19;94846.41;;;10.97;51.30
40205;BME280;26963;42.666;23.366;2023-03-04T10:28:09;94851.94;;;10.86;52.08
40205;BME280;26963;42.666;23.366;2023-03-04T10:33:27;94847.28;;;10.78;52.00
40205;BME280;26963;42.666;23.366;2023-03-04T10:39:00;94843.38;;;10.70;52.50
40205;BME280;26963;42.666;23.366;2023-03-04T10:41:28;94789.47;;;10.49;52.58
40205;BME280;26963;42.666;23.366;2023-03-04T10:46:23;94806.25;;;10.97;51.88
40205;BME280;26963;42.666;23.366;2023-03-04T10:48:48;94821.31;;;11.20;51.47
40205;BME280;26963;42.666;23.366;2023-03-04T10:51:19;94797.84;;;11.17;51.12
40205;BME280;26963;42.666;23.366;2023-03-04T10:53:46;94811.09;;;11.50;50.64
40205;BME280;26963;42.666;23.366;2023-03-04T11:01:53;94793.53;;;11.81;49.62
40205;BME280;26963;42.666;23.366;2023-03-04T11:04:22;94786.97;;;11.87;49.14
40205;BME280;26963;42.666;23.366;2023-03-04T11:06:50;94786.84;;;11.92;48.95
40205;BME280;26963;42.666;23.366;2023-03-04T11:09:25;94783.16;;;12.02;48.84
40205;BME280;26963;42.666;23.366;2023-03-04T11:11:52;94782.69;;;12.22;48.65
40205;BME280;26963;42.666;23.366;2023-03-04T11:14:24;94774.84;;;12.35;48.15
40205;BME280;26963;42.666;23.366;2023-03-04T11:19:22;94751.88;;;12.51;47.69
40205;BME280;26963;42.666;23.366;2023-03-04T11:21:50;94709.50;;;12.31;47.33
40205;BME280;26963;42.666;23.366;2023-03-04T11:24:27;94758.03;;;12.83;46.65
40205;BME280;26963;42.666;23.366;2023-03-04T11:29:27;94762.41;;;12.79;46.87
40205;BME280;26963;42.666;23.366;2023-03-04T11:32:14;94754.22;;;12.84;47.38
40205;BME280;26963;42.666;23.366;2023-03-04T11:34:55;94721.53;;;12.82;46.74
40205;BME280;26963;42.666;23.366;2023-03-04T11:40:40;94734.53;;;12.98;46.22
40205;BME280;26963;42.666;23.366;2023-03-04T11:43:36;94740.56;;;13.03;46.09
40205;BME280;26963;42.666;23.366;2023-03-04T11:51:52;94727.75;;;13.00;46.74
40205;BME280;26963;42.666;23.366;2023-03-04T11:54:25;94732.19;;;13.05;46.75
40205;BME280;26963;42.666;23.366;2023-03-04T11:56:58;94674.06;;;12.51;46.27
40205;BME280;26963;42.666;23.366;2023-03-04T12:04:56;94723.75;;;12.09;47.80
40205;BME280;26963;42.666;23.366;2023-03-04T12:07:35;94719.50;;;11.94;48.32
40205;BME280;26963;42.666;23.366;2023-03-04T12:13:01;94688.75;;;11.68;48.63
40205;BME280;26963;42.666;23.366;2023-03-04T12:24:49;94703.25;;;11.67;49.36
40205;BME280;26963;42.666;23.366;2023-03-04T12:27:19;94485.44;;;10.31;49.46
40205;BME280;26963;42.666;23.366;2023-03-04T12:35:13;94639.25;;;11.43;49.98
40205;BME280;26963;42.666;23.366;2023-03-04T12:38:00;94602.59;;;11.30;50.14
40205;BME280;26963;42.666;23.366;2023-03-04T12:41:36;94689.44;;;11.97;49.68
40205;BME280;26963;42.666;23.366;2023-03-04T12:54:40;94677.22;;;12.13;48.26
40205;BME280;26963;42.666;23.366;2023-03-04T12:57:23;94657.13;;;12.02;48.29
40205;BME280;26963;42.666;23.366;2023-03-04T13:08:28;94654.22;;;11.67;49.55
40205;BME280;26963;42.666;23.366;2023-03-04T13:11:02;94658.44;;;11.59;49.64
40205;BME280;26963;42.666;23.366;2023-03-04T13:13:40;94636.06;;;11.41;49.73
40205;BME280;26963;42.666;23.366;2023-03-04T13:18:37;94496.44;;;10.43;50.21
40205;BME280;26963;42.666;23.366;2023-03-04T13:23:38;94620.91;;;11.14;51.04
40205;BME280;26963;42.666;23.366;2023-03-04T13:26:28;94621.56;;;11.19;50.96
40205;BME280;26963;42.666;23.366;2023-03-04T13:32:09;94634.31;;;11.36;50.75
40205;BME280;26963;42.666;23.366;2023-03-04T13:34:48;94641.75;;;11.39;50.83
40205;BME280;26963;42.666;23.366;2023-03-04T13:37:30;94643.00;;;11.42;50.45
40205;BME280;26963;42.666;23.366;2023-03-04T13:42:47;94604.41;;;11.20;50.61
40205;BME280;26963;42.666;23.366;2023-03-04T13:45:45;94635.28;;;11.40;50.41
40205;BME280;26963;42.666;23.366;2023-03-04T13:48:24;94611.56;;;11.25;50.41
40205;BME280;26963;42.666;23.366;2023-03-04T13:50:51;94576.91;;;11.06;50.71
40205;BME280;26963;42.666;23.366;2023-03-04T13:58:28;94622.31;;;11.56;51.01
40205;BME280;26963;42.666;23.366;2023-03-04T14:00:55;94611.72;;;11.51;50.41
40205;BME280;26963;42.666;23.366;2023-03-04T14:03:30;94610.44;;;11.49;50.56
40205;BME280;26963;42.666;23.366;2023-03-04T14:06:19;94609.28;;;11.41;51.03
40205;BME280;26963;42.666;23.366;2023-03-04T14:08:46;94586.50;;;11.30;50.80
40205;BME280;26963;42.666;23.366;2023-03-04T14:11:13;94562.13;;;11.08;50.92
40205;BME280;26963;42.666;23.366;2023-03-04T14:13:40;94607.94;;;11.30;50.91
40205;BME280;26963;42.666;23.366;2023-03-04T14:16:06;94606.97;;;11.25;51.30
40205;BME280;26963;42.666;23.366;2023-03-04T14:18:31;94578.72;;;11.19;50.94
40205;BME280;26963;42.666;23.366;2023-03-04T14:20:59;94574.34;;;11.01;51.45
40205;BME280;26963;42.666;23.366;2023-03-04T14:23:31;94569.59;;;10.98;51.63
40205;BME280;26963;42.666;23.366;2023-03-04T14:26:13;94593.31;;;11.13;51.73
40205;BME280;26963;42.666;23.366;2023-03-04T14:28:44;94581.22;;;11.16;51.51
40205;BME280;26963;42.666;23.366;2023-03-04T14:31:16;94579.22;;;11.21;51.23
40205;BME280;26963;42.666;23.366;2023-03-04T14:33:50;94595.22;;;11.35;51.25
40205;BME280;26963;42.666;23.366;2023-03-04T14:36:24;94569.84;;;11.33;50.94
40205;BME280;26963;42.666;23.366;2023-03-04T14:38:56;94575.91;;;11.47;50.83
40205;BME280;26963;42.666;23.366;2023-03-04T14:46:32;94529.06;;;11.13;50.85